Time;durP1;ratioP1;P1;durP2;ratioP2;P2;SDS_P1;SDS_P2;PMS_P1;PMS_P2;Temp;Humidity;BMP_temperature;BMP_pressure;BME280_temperature;BME280_humidity;BME280_pressure;Samples;Min_cycle;Max_cycle;Signal;HPM_P1;HPM_P2
2021/04/18 00:01:30;;;;;;;3.23;2.00;;;7.90;99.90;;;;;;5007299;28;20184;-83
2021/04/18 00:03:56;;;;;;;3.03;2.73;;;7.90;99.90;;;;;;5008144;28;20664;-82
2021/04/18 00:06:22;;;;;;;3.00;2.07;;;7.90;99.90;;;;;;5007000;28;20183;-83
2021/04/18 00:08:48;;;;;;;3.50;1.83;;;7.90;99.90;;;;;;5007344;28;20222;-83
2021/04/18 00:11:15;;;;;;;3.47;2.13;;;7.80;99.90;;;;;;5014749;28;20184;-82
2021/04/18 00:13:41;;;;;;;2.13;1.93;;;7.80;99.90;;;;;;5008984;28;20238;-84
2021/04/18 00:16:06;;;;;;;2.17;1.87;;;7.70;99.90;;;;;;5008468;28;20601;-83
2021/04/18 00:18:32;;;;;;;4.37;2.03;;;7.70;99.90;;;;;;5007083;28;20184;-82
2021/04/18 00:20:58;;;;;;;2.87;2.17;;;7.70;99.90;;;;;;5008152;28;20231;-82
2021/04/18 00:23:23;;;;;;;5.20;2.67;;;7.70;99.90;;;;;;5008350;28;20184;-82
2021/04/18 00:25:49;;;;;;;2.30;1.80;;;7.70;99.90;;;;;;5007549;28;20302;-83
2021/04/18 00:28:15;;;;;;;2.43;2.07;;;7.70;99.90;;;;;;5008205;28;20179;-83
2021/04/18 00:30:41;;;;;;;2.33;1.73;;;7.60;99.90;;;;;;5007535;28;20211;-82
2021/04/18 00:33:06;;;;;;;2.63;2.03;;;7.60;99.90;;;;;;5006756;28;20188;-83
2021/04/18 00:35:32;;;;;;;2.30;1.80;;;7.70;99.90;;;;;;5006663;28;20680;-83
2021/04/18 00:37:58;;;;;;;5.17;1.73;;;7.70;99.90;;;;;;5008199;28;20180;-83
2021/04/18 00:40:25;;;;;;;2.60;1.33;;;7.70;99.90;;;;;;5007283;28;20687;-83
2021/04/18 00:42:51;;;;;;;1.53;1.37;;;7.60;99.90;;;;;;5006747;28;20191;-83
2021/04/18 00:45:20;;;;;;;4.10;2.37;;;7.60;99.90;;;;;;5023102;28;20184;-83
2021/04/18 00:47:48;;;;;;;1.80;1.50;;;7.60;99.90;;;;;;4999566;28;20183;-83
2021/04/18 00:50:23;;;;;;;2.87;2.03;;;7.60;99.90;;;;;;5006417;28;20208;-83
2021/04/18 00:52:50;;;;;;;2.00;1.80;;;7.60;99.90;;;;;;5006762;28;20222;-83
2021/04/18 00:55:16;;;;;;;1.83;1.50;;;7.50;99.90;;;;;;5022690;28;20207;-83
2021/04/18 00:57:42;;;;;;;2.10;1.90;;;7.50;99.90;;;;;;5007864;28;20190;-83
2021/04/18 01:00:09;;;;;;;1.90;1.53;;;7.50;99.90;;;;;;5007536;28;20243;-83
2021/04/18 01:02:35;;;;;;;1.57;1.47;;;7.50;99.90;;;;;;5007310;28;20187;-84
2021/04/18 01:05:02;;;;;;;6.60;1.60;;;7.50;99.90;;;;;;5006503;28;20705;-82
2021/04/18 01:07:28;;;;;;;2.37;1.60;;;7.40;99.90;;;;;;5005446;28;20245;-83
2021/04/18 01:09:54;;;;;;;1.97;1.70;;;7.50;99.90;;;;;;5007043;28;20260;-82
2021/04/18 01:12:21;;;;;;;1.97;1.63;;;7.60;99.90;;;;;;5007175;28;20223;-82
2021/04/18 01:14:46;;;;;;;3.03;2.10;;;7.50;99.90;;;;;;5006197;28;20202;-83
2021/04/18 01:17:12;;;;;;;3.90;2.10;;;7.60;99.90;;;;;;5006333;28;20188;-82
2021/04/18 01:19:37;;;;;;;4.40;2.03;;;7.60;99.90;;;;;;5007197;28;20212;-82
2021/04/18 01:22:03;;;;;;;4.50;1.83;;;7.50;99.90;;;;;;5005863;28;20186;-82
2021/04/18 01:24:29;;;;;;;3.73;1.70;;;7.50;99.90;;;;;;5005862;28;20214;-83
2021/04/18 01:26:55;;;;;;;2.73;1.63;;;7.30;99.90;;;;;;5006342;28;20257;-83
2021/04/18 01:29:21;;;;;;;1.80;1.67;;;7.30;99.90;;;;;;5006167;28;20222;-83
2021/04/18 01:31:46;;;;;;;2.97;1.90;;;7.30;99.90;;;;;;5006560;28;20298;-83
2021/04/18 01:34:13;;;;;;;2.80;1.70;;;7.30;99.90;;;;;;5005554;28;20699;-83
2021/04/18 01:36:42;;;;;;;2.13;1.63;;;7.40;99.90;;;;;;5005755;28;20241;-84
2021/04/18 01:39:08;;;;;;;2.97;1.47;;;7.30;99.90;;;;;;5005780;28;20215;-83
2021/04/18 01:41:34;;;;;;;1.40;1.30;;;7.40;99.90;;;;;;5005854;28;20203;-83
2021/04/18 01:43:59;;;;;;;2.10;1.57;;;7.40;99.90;;;;;;5005662;28;20188;-83
2021/04/18 01:46:25;;;;;;;1.80;1.43;;;7.40;99.90;;;;;;5005612;28;20198;-83
2021/04/18 01:48:51;;;;;;;3.77;2.13;;;7.40;99.90;;;;;;5006411;28;20279;-83
2021/04/18 01:51:17;;;;;;;2.53;1.50;;;7.40;99.90;;;;;;5022281;28;20183;-83
2021/04/18 01:53:42;;;;;;;2.60;1.87;;;7.40;99.90;;;;;;5005336;28;20183;-83
2021/04/18 01:56:08;;;;;;;1.77;1.47;;;7.40;99.90;;;;;;5005586;28;20253;-83
2021/04/18 01:58:34;;;;;;;2.87;1.77;;;7.40;99.90;;;;;;5005584;28;20294;-83
2021/04/18 02:01:00;;;;;;;3.47;1.30;;;7.30;99.90;;;;;;5005718;28;20580;-83
2021/04/18 02:03:26;;;;;;;2.77;1.70;;;7.30;99.90;;;;;;5005096;28;20187;-82
2021/04/18 02:05:51;;;;;;;4.67;1.90;;;7.40;99.90;;;;;;5005872;28;20664;-84
2021/04/18 02:08:17;;;;;;;3.43;1.83;;;7.40;99.90;;;;;;5004933;28;20276;-83
2021/04/18 02:10:43;;;;;;;2.03;1.70;;;7.40;99.90;;;;;;5005644;28;20218;-83
2021/04/18 02:13:08;;;;;;;2.67;1.60;;;7.30;99.90;;;;;;5005148;28;20199;-82
2021/04/18 02:15:34;;;;;;;2.67;2.00;;;7.20;99.90;;;;;;5004840;28;20238;-83
2021/04/18 02:17:59;;;;;;;3.50;2.37;;;7.30;99.90;;;;;;5005213;28;20605;-83
2021/04/18 02:20:25;;;;;;;1.83;1.60;;;7.20;99.90;;;;;;5004272;28;20222;-82
2021/04/18 02:22:51;;;;;;;5.07;1.77;;;7.20;99.90;;;;;;5006144;28;20258;-82
2021/04/18 02:25:16;;;;;;;3.63;2.27;;;7.30;99.90;;;;;;5004744;28;20653;-83
2021/04/18 02:27:42;;;;;;;1.93;1.70;;;7.20;99.90;;;;;;5004475;28;20183;-82
2021/04/18 02:30:08;;;;;;;2.40;1.80;;;7.30;99.90;;;;;;5020494;28;20212;-83
2021/04/18 02:32:34;;;;;;;1.97;1.40;;;7.30;99.90;;;;;;5004823;28;20192;-82
2021/04/18 02:35:00;;;;;;;3.37;1.53;;;7.20;99.90;;;;;;5004867;28;20242;-82
2021/04/18 02:37:26;;;;;;;1.63;1.53;;;7.10;99.90;;;;;;5004555;28;20274;-83
2021/04/18 02:39:51;;;;;;;2.13;1.93;;;7.10;99.90;;;;;;5004917;28;20628;-82
2021/04/18 02:42:17;;;;;;;4.10;2.27;;;7.00;99.90;;;;;;5004664;28;20662;-83
2021/04/18 02:44:43;;;;;;;2.37;1.87;;;7.00;99.90;;;;;;5004768;28;20609;-82
2021/04/18 02:47:08;;;;;;;2.20;1.40;;;7.00;99.90;;;;;;5005722;28;20183;-82
2021/04/18 02:49:34;;;;;;;1.63;1.43;;;7.10;99.90;;;;;;5021200;28;20235;-83
2021/04/18 02:52:00;;;;;;;2.33;1.60;;;7.00;99.90;;;;;;5004486;28;20176;-83
2021/04/18 02:54:25;;;;;;;2.97;2.07;;;7.10;99.90;;;;;;5004322;28;20668;-83
2021/04/18 02:56:51;;;;;;;1.90;1.53;;;7.10;99.90;;;;;;5004482;28;20201;-84
2021/04/18 02:59:16;;;;;;;2.10;1.60;;;7.10;99.90;;;;;;5004345;28;20211;-84
2021/04/18 03:01:42;;;;;;;1.77;1.53;;;7.10;99.90;;;;;;5004895;28;20194;-83
2021/04/18 03:04:08;;;;;;;2.47;1.70;;;7.20;99.90;;;;;;5004111;28;20527;-83
2021/04/18 03:06:34;;;;;;;1.70;1.60;;;7.20;99.90;;;;;;5004495;28;20191;-83
2021/04/18 03:09:00;;;;;;;1.40;1.30;;;7.20;99.90;;;;;;5005324;28;20681;-83
2021/04/18 03:11:26;;;;;;;2.43;1.67;;;7.20;99.90;;;;;;5004721;28;20567;-82
2021/04/18 03:13:51;;;;;;;3.20;2.33;;;7.20;99.90;;;;;;5004780;28;20195;-82
2021/04/18 03:16:17;;;;;;;3.20;1.70;;;7.20;99.90;;;;;;5004431;28;20261;-82
2021/04/18 03:18:43;;;;;;;1.57;1.40;;;7.10;99.90;;;;;;5005552;28;20180;-82
2021/04/18 03:21:08;;;;;;;1.97;1.50;;;7.20;99.90;;;;;;5020497;28;20223;-82
2021/04/18 03:23:34;;;;;;;1.67;1.20;;;7.20;99.90;;;;;;5005807;28;20187;-81
2021/04/18 03:26:00;;;;;;;3.00;2.23;;;7.20;99.90;;;;;;5005159;28;20690;-82
2021/04/18 03:28:25;;;;;;;1.50;1.20;;;7.00;99.90;;;;;;5005136;28;20191;-81
2021/04/18 03:30:51;;;;;;;1.57;1.37;;;7.10;99.90;;;;;;5006675;28;21025;-83
2021/04/18 03:33:17;;;;;;;3.50;1.60;;;7.10;99.90;;;;;;5008627;28;20196;-81
2021/04/18 03:35:43;;;;;;;1.67;1.57;;;7.00;99.90;;;;;;5009722;28;20192;-81
2021/04/18 03:38:09;;;;;;;4.13;1.90;;;7.00;99.90;;;;;;5008729;28;20190;-82
2021/04/18 03:40:36;;;;;;;2.50;2.00;;;7.00;99.90;;;;;;5009447;28;20230;-82
2021/04/18 03:43:02;;;;;;;3.10;2.07;;;7.00;99.90;;;;;;5008242;28;20284;-83
2021/04/18 03:45:27;;;;;;;2.47;1.80;;;7.00;99.90;;;;;;5009700;28;20294;-82
2021/04/18 03:47:53;;;;;;;5.47;1.70;;;7.00;99.90;;;;;;5008839;28;20950;-82
2021/04/18 03:50:19;;;;;;;1.97;1.67;;;7.10;99.90;;;;;;5009938;28;20215;-82
2021/04/18 03:52:45;;;;;;;6.70;2.53;;;7.00;99.90;;;;;;5008048;28;20236;-84
2021/04/18 03:55:11;;;;;;;1.70;1.57;;;7.20;99.90;;;;;;5007918;28;20183;-82
2021/04/18 03:57:36;;;;;;;2.00;1.70;;;7.10;99.90;;;;;;5009333;28;20199;-82
2021/04/18 04:00:05;;;;;;;3.40;1.90;;;7.10;99.90;;;;;;5007934;28;20238;-82
2021/04/18 04:02:31;;;;;;;2.57;1.67;;;7.10;99.90;;;;;;5016846;28;20222;-82
2021/04/18 04:04:56;;;;;;;4.13;2.13;;;7.10;99.90;;;;;;5007677;28;20219;-82
2021/04/18 04:07:22;;;;;;;2.43;1.97;;;7.00;99.90;;;;;;5007771;28;20182;-82
2021/04/18 04:09:47;;;;;;;2.70;2.20;;;7.00;99.90;;;;;;5008145;28;20219;-81
2021/04/18 04:12:13;;;;;;;2.17;1.73;;;7.00;99.90;;;;;;5009541;28;20772;-82
2021/04/18 04:14:38;;;;;;;2.67;2.00;;;7.10;99.90;;;;;;5007586;28;20274;-81
2021/04/18 04:17:04;;;;;;;2.87;2.10;;;7.10;99.90;;;;;;5007848;28;20252;-81
2021/04/18 04:19:30;;;;;;;2.07;1.70;;;7.00;99.90;;;;;;5007805;28;20219;-82
2021/04/18 04:21:55;;;;;;;3.70;2.67;;;7.00;99.90;;;;;;5009533;28;20199;-82
2021/04/18 04:24:21;;;;;;;2.53;2.03;;;7.00;99.90;;;;;;5007340;28;20191;-82
2021/04/18 04:26:47;;;;;;;7.03;2.50;;;7.00;99.90;;;;;;5008341;28;20198;-81
2021/04/18 04:29:12;;;;;;;2.90;2.60;;;7.00;99.90;;;;;;5007433;28;20207;-82
2021/04/18 04:31:38;;;;;;;3.10;2.63;;;7.00;99.90;;;;;;5008834;28;20184;-81
2021/04/18 04:34:03;;;;;;;3.13;2.63;;;7.00;99.90;;;;;;5009243;28;20187;-81
2021/04/18 04:36:29;;;;;;;3.63;3.13;;;7.10;99.90;;;;;;5007378;28;20563;-81
2021/04/18 04:38:55;;;;;;;3.63;2.90;;;7.10;99.90;;;;;;5007192;28;20187;-82
2021/04/18 04:41:20;;;;;;;4.33;3.10;;;7.00;99.90;;;;;;5007397;28;20184;-82
2021/04/18 04:43:46;;;;;;;5.33;2.97;;;7.10;99.90;;;;;;5007010;28;20255;-81
2021/04/18 04:46:12;;;;;;;5.13;2.77;;;7.00;99.90;;;;;;5007260;28;20180;-82
2021/04/18 04:48:39;;;;;;;5.80;3.17;;;7.10;99.90;;;;;;5007079;28;20341;-82
2021/04/18 04:51:05;;;;;;;3.30;2.77;;;7.20;99.90;;;;;;5006416;28;20195;-82
2021/04/18 04:53:31;;;;;;;3.03;2.67;;;7.20;99.90;;;;;;5008723;28;20214;-81
2021/04/18 04:55:56;;;;;;;4.17;3.33;;;7.30;99.90;;;;;;5007100;28;20183;-81
2021/04/18 04:58:22;;;;;;;4.13;2.90;;;7.30;99.90;;;;;;5008249;28;20237;-82
2021/04/18 05:00:47;;;;;;;6.90;3.87;;;7.50;99.90;;;;;;5007439;28;20211;-82
2021/04/18 05:03:13;;;;;;;3.63;2.87;;;7.50;99.90;;;;;;5006815;28;20187;-82
2021/04/18 05:05:39;;;;;;;4.60;2.93;;;7.50;99.90;;;;;;5007990;28;20176;-82
2021/04/18 05:08:05;;;;;;;4.47;3.10;;;7.60;99.90;;;;;;5010536;28;20195;-82
2021/04/18 05:10:30;;;;;;;5.90;2.97;;;7.60;99.90;;;;;;5019169;28;20215;-82
2021/04/18 05:12:56;;;;;;;3.87;3.47;;;7.60;99.90;;;;;;5019725;28;20188;-81
2021/04/18 05:15:22;;;;;;;4.90;3.93;;;7.60;99.90;;;;;;5020810;28;20214;-82
2021/04/18 05:17:51;;;;;;;5.83;2.87;;;7.70;99.90;;;;;;5021006;28;20241;-83
2021/04/18 05:20:18;;;;;;;6.30;3.43;;;7.70;99.90;;;;;;5020341;28;20203;-83
2021/04/18 05:22:45;;;;;;;6.17;3.77;;;7.80;99.90;;;;;;5021777;28;20187;-83
2021/04/18 05:25:12;;;;;;;5.97;3.40;;;7.80;99.90;;;;;;5020313;28;20263;-83
2021/04/18 05:27:37;;;;;;;6.20;3.73;;;7.90;99.90;;;;;;5018697;28;20199;-84
2021/04/18 05:30:06;;;;;;;10.73;3.80;;;7.90;99.90;;;;;;5011392;28;20225;-84
2021/04/18 05:32:32;;;;;;;6.00;3.60;;;7.90;99.90;;;;;;5012888;28;20222;-82
2021/04/18 05:34:58;;;;;;;6.23;4.67;;;8.00;99.90;;;;;;5003482;28;20708;-83
2021/04/18 05:37:23;;;;;;;6.10;3.70;;;8.00;99.90;;;;;;5012242;28;20192;-83
2021/04/18 05:39:49;;;;;;;9.33;4.67;;;8.00;99.90;;;;;;5011728;28;20211;-83
2021/04/18 05:42:14;;;;;;;5.67;3.53;;;8.10;99.90;;;;;;5010531;28;20188;-83
2021/04/18 05:44:40;;;;;;;5.73;3.47;;;8.20;99.90;;;;;;5010133;28;20310;-84
2021/04/18 05:47:06;;;;;;;5.90;4.20;;;8.10;99.90;;;;;;5011780;28;21263;-82
2021/04/18 05:49:31;;;;;;;6.47;3.73;;;8.10;99.90;;;;;;5009867;28;20207;-83
2021/04/18 05:51:57;;;;;;;6.20;3.60;;;8.10;99.90;;;;;;5011766;28;20269;-83
2021/04/18 05:54:23;;;;;;;4.87;4.27;;;8.00;99.90;;;;;;5010001;28;20188;-83
2021/04/18 05:56:48;;;;;;;5.60;3.43;;;8.10;99.90;;;;;;5010056;28;20286;-84
2021/04/18 05:59:14;;;;;;;5.53;4.13;;;8.10;99.90;;;;;;5010163;28;20230;-82
2021/04/18 06:01:40;;;;;;;6.30;3.87;;;8.10;99.90;;;;;;5009670;28;20188;-83
2021/04/18 06:04:06;;;;;;;5.13;3.53;;;8.10;99.90;;;;;;5009362;28;20233;-83
2021/04/18 06:06:31;;;;;;;7.43;3.57;;;8.10;99.90;;;;;;5008683;28;20214;-84
2021/04/18 06:08:57;;;;;;;3.87;3.10;;;8.00;99.90;;;;;;5011197;28;20203;-84
2021/04/18 06:11:23;;;;;;;6.17;2.90;;;8.10;99.90;;;;;;5008969;28;20249;-82
2021/04/18 06:13:49;;;;;;;4.97;3.97;;;8.10;99.90;;;;;;5005503;28;20215;-82
2021/04/18 06:16:16;;;;;;;5.63;2.90;;;8.20;99.90;;;;;;5005885;28;20676;-83
2021/04/18 06:18:41;;;;;;;5.40;3.23;;;8.20;99.90;;;;;;5006959;28;20199;-82
2021/04/18 06:21:07;;;;;;;5.33;3.83;;;8.20;99.90;;;;;;5009066;28;20250;-83
2021/04/18 06:23:33;;;;;;;4.23;2.93;;;8.20;99.90;;;;;;5006767;28;20191;-82
2021/04/18 06:25:59;;;;;;;5.00;3.57;;;8.30;99.90;;;;;;5023310;28;20183;-83
2021/04/18 06:28:25;;;;;;;8.80;4.90;;;8.40;99.90;;;;;;5007563;28;20187;-82
2021/04/18 06:30:51;;;;;;;4.83;3.70;;;8.50;99.90;;;;;;5009194;28;20211;-82
2021/04/18 06:33:17;;;;;;;4.23;3.27;;;8.60;99.90;;;;;;5005698;28;20720;-84
2021/04/18 06:35:43;;;;;;;3.97;2.90;;;8.70;99.90;;;;;;5007754;28;20267;-83
2021/04/18 06:38:10;;;;;;;11.83;3.13;;;8.90;99.90;;;;;;5008281;28;20734;-83
2021/04/18 06:40:35;;;;;;;4.93;3.53;;;8.90;99.90;;;;;;5006895;28;20740;-81
2021/04/18 06:43:05;;;;;;;5.97;3.97;;;8.90;99.90;;;;;;5006412;28;20179;-83
2021/04/18 06:45:31;;;;;;;7.13;3.93;;;9.10;99.90;;;;;;5007036;28;20771;-84
2021/04/18 06:47:59;;;;;;;5.70;3.73;;;9.00;99.90;;;;;;5008992;28;20179;-84
2021/04/18 06:50:24;;;;;;;5.43;3.50;;;9.00;99.90;;;;;;5009493;28;20214;-84
2021/04/18 06:52:50;;;;;;;4.10;3.40;;;9.00;99.90;;;;;;5009032;28;20187;-83
2021/04/18 06:55:17;;;;;;;4.87;3.67;;;9.20;99.90;;;;;;5008919;28;20188;-83
2021/04/18 06:57:42;;;;;;;4.77;3.67;;;9.30;99.90;;;;;;5009045;28;20266;-83
2021/04/18 07:00:10;;;;;;;6.37;4.10;;;9.20;99.90;;;;;;5008421;28;20290;-82
2021/04/18 07:02:36;;;;;;;6.07;3.90;;;9.20;99.90;;;;;;5007933;28;20179;-83
2021/04/18 07:05:06;;;;;;;5.13;3.30;;;9.20;99.90;;;;;;5008891;28;20207;-83
2021/04/18 07:07:34;;;;;;;4.90;3.87;;;9.30;99.90;;;;;;5011458;28;20207;-84
2021/04/18 07:10:01;;;;;;;5.27;4.03;;;9.40;99.90;;;;;;5010811;28;20690;-82
2021/04/18 07:12:31;;;;;;;4.17;3.40;;;9.40;99.90;;;;;;5012902;28;20278;-83
2021/04/18 07:14:58;;;;;;;5.77;3.70;;;9.30;99.90;;;;;;5011749;28;20183;-83
2021/04/18 07:17:24;;;;;;;4.87;3.73;;;9.30;99.90;;;;;;5010617;28;20345;-84
2021/04/18 07:20:08;;;;;;;5.80;3.87;;;9.40;99.90;;;;;;5011675;28;20775;-84
2021/04/18 07:22:33;;;;;;;4.47;3.83;;;9.30;99.90;;;;;;5011233;28;20179;-83
2021/04/18 07:25:00;;;;;;;5.70;3.83;;;9.30;99.90;;;;;;5010695;28;20180;-83
2021/04/18 07:27:43;;;;;;;6.07;4.30;;;9.40;99.90;;;;;;5012377;28;20668;-82
2021/04/18 07:30:09;;;;;;;6.37;3.77;;;9.60;99.90;;;;;;5010496;28;20207;-84
2021/04/18 07:32:34;;;;;;;6.60;3.93;;;9.80;99.90;;;;;;5028098;28;20207;-84
2021/04/18 07:35:01;;;;;;;4.97;3.73;;;10.00;99.90;;;;;;5010670;28;21034;-83
2021/04/18 07:37:28;;;;;;;6.87;4.10;;;10.20;99.90;;;;;;5012437;28;20369;-83
2021/04/18 07:39:58;;;;;;;5.30;3.60;;;10.40;99.90;;;;;;5010643;28;20608;-84
2021/04/18 07:42:34;;;;;;;6.77;3.97;;;10.50;99.90;;;;;;5010594;28;20175;-83
2021/04/18 07:45:05;;;;;;;4.43;3.50;;;10.60;99.90;;;;;;5011281;28;21046;-83
2021/04/18 07:47:34;;;;;;;5.07;3.60;;;10.50;99.90;;;;;;5011608;28;20206;-83
2021/04/18 07:50:01;;;;;;;5.77;3.83;;;10.70;99.90;;;;;;5011073;28;20314;-84
2021/04/18 07:52:28;;;;;;;5.27;3.43;;;10.90;99.90;;;;;;5026461;28;20183;-83
2021/04/18 07:54:54;;;;;;;4.20;3.07;;;10.90;99.90;;;;;;5009819;28;20939;-84
2021/04/18 07:57:21;;;;;;;5.97;3.50;;;10.70;99.90;;;;;;5009079;28;20191;-83
2021/04/18 07:59:47;;;;;;;7.40;4.10;;;10.70;99.90;;;;;;5018369;28;20215;-83
2021/04/18 08:02:18;;;;;;;4.63;3.27;;;10.50;99.90;;;;;;5011052;28;20186;-83
2021/04/18 08:04:44;;;;;;;4.43;3.97;;;10.40;99.90;;;;;;5009381;28;20748;-83
2021/04/18 08:07:10;;;;;;;5.70;4.10;;;10.60;99.90;;;;;;5009521;28;20326;-82
2021/04/18 08:09:36;;;;;;;4.10;3.67;;;10.80;99.90;;;;;;5009990;28;20233;-81
2021/04/18 08:12:10;;;;;;;4.97;3.60;;;10.90;99.90;;;;;;5008309;28;20180;-81
2021/04/18 08:14:37;;;;;;;4.57;3.67;;;10.90;99.90;;;;;;5009549;28;20190;-81
2021/04/18 08:17:11;;;;;;;8.27;5.67;;;10.90;99.90;;;;;;5006907;28;20187;-78
2021/04/18 08:19:37;;;;;;;7.67;4.03;;;10.90;99.90;;;;;;5009633;28;20198;-77
2021/04/18 08:22:04;;;;;;;5.47;4.13;;;10.80;99.90;;;;;;5009405;28;20191;-77
2021/04/18 08:24:33;;;;;;;5.77;3.50;;;10.70;99.90;;;;;;5009476;28;20587;-78
2021/04/18 08:27:11;;;;;;;4.50;3.70;;;10.70;99.90;;;;;;5010292;28;20206;-78
2021/04/18 08:30:02;;;;;;;5.20;4.57;;;10.70;99.90;;;;;;5008072;28;20214;-80
2021/04/18 08:32:55;;;;;;;4.90;3.53;;;10.60;99.90;;;;;;5026759;28;20180;-83
2021/04/18 08:35:23;;;;;;;5.20;4.37;;;10.80;99.90;;;;;;5008706;28;20203;-82
2021/04/18 08:38:11;;;;;;;5.57;4.03;;;11.00;99.90;;;;;;5009175;28;20192;-84
2021/04/18 08:40:37;;;;;;;6.07;4.50;;;10.80;99.90;;;;;;5025018;28;20696;-83
2021/04/18 08:43:25;;;;;;;5.10;3.73;;;10.80;99.90;;;;;;5008184;28;20184;-79
2021/04/18 08:45:54;;;;;;;4.53;3.37;;;10.70;99.90;;;;;;5008814;28;20175;-78
2021/04/18 08:48:20;;;;;;;5.73;3.40;;;10.90;99.90;;;;;;5008702;28;20188;-76
2021/04/18 08:51:00;;;;;;;5.23;3.30;;;10.90;99.90;;;;;;5009489;28;20203;-78
2021/04/18 08:53:27;;;;;;;8.80;4.27;;;10.60;99.90;;;;;;5007501;28;20187;-82
2021/04/18 08:55:59;;;;;;;5.07;3.97;;;10.70;99.90;;;;;;5008849;28;20619;-82
2021/04/18 08:58:38;;;;;;;5.07;4.03;;;10.80;99.90;;;;;;5010460;28;20192;-82
2021/04/18 09:01:08;;;;;;;5.50;4.23;;;11.40;99.90;;;;;;5026226;28;20258;-83
2021/04/18 09:03:35;;;;;;;4.60;3.30;;;12.10;99.90;;;;;;5009308;28;20183;-83
2021/04/18 09:06:15;;;;;;;7.07;4.23;;;12.50;99.90;;;;;;5008126;28;20279;-83
2021/04/18 09:08:51;;;;;;;6.43;3.90;;;12.60;99.90;;;;;;5007732;28;20207;-82
2021/04/18 09:11:17;;;;;;;5.23;3.90;;;12.60;99.90;;;;;;5007164;28;20179;-83
2021/04/18 09:13:59;;;;;;;4.07;3.20;;;12.40;99.90;;;;;;5008141;28;20188;-83
2021/04/18 09:16:30;;;;;;;6.53;4.20;;;12.70;99.90;;;;;;5007602;28;20274;-83
2021/04/18 09:19:29;;;;;;;5.10;3.55;;;13.00;99.90;;;;;;5007010;28;20194;-83
2021/04/18 09:22:08;;;;;;;3.90;3.50;;;13.10;99.90;;;;;;5024331;28;20188;-83
2021/04/18 09:25:08;;;;;;;5.32;4.03;;;13.20;99.90;;;;;;5007377;28;20187;-83
2021/04/18 09:27:35;;;;;;;4.70;3.55;;;13.30;99.90;;;;;;5007023;28;20188;-82
2021/04/18 09:30:05;;;;;;;4.80;3.33;;;13.40;99.90;;;;;;5008662;28;20200;-83
2021/04/18 09:32:33;;;;;;;4.72;3.95;;;13.50;99.90;;;;;;5008201;28;20653;-82
2021/04/18 09:34:59;;;;;;;5.65;4.22;;;13.60;99.90;;;;;;5008134;28;20176;-83
2021/04/18 09:37:29;;;;;;;4.85;3.80;;;13.50;99.90;;;;;;5007353;28;20187;-83
2021/04/18 09:39:59;;;;;;;4.25;3.53;;;13.30;99.90;;;;;;5006569;28;20211;-83
2021/04/18 09:42:33;;;;;;;6.38;4.18;;;13.00;99.90;;;;;;5024095;28;20179;-83
2021/04/18 09:45:14;;;;;;;4.90;4.00;;;12.10;99.90;;;;;;5006016;28;20189;-82
2021/04/18 09:48:13;;;;;;;7.27;3.90;;;12.30;99.90;;;;;;5015612;28;20186;-83
2021/04/18 09:50:39;;;;;;;5.93;4.40;;;12.00;99.90;;;;;;5015817;28;20207;-83
2021/04/18 09:53:22;;;;;;;6.50;4.33;;;11.90;99.90;;;;;;5006766;28;20611;-83
2021/04/18 09:56:03;;;;;;;5.27;4.17;;;11.70;99.90;;;;;;5006646;28;20172;-83
2021/04/18 09:58:36;;;;;;;7.82;4.20;;;11.80;99.90;;;;;;5005737;28;20191;-83
2021/04/18 10:01:03;;;;;;;5.80;4.50;;;11.80;99.90;;;;;;5006043;28;20211;-82
2021/04/18 10:03:39;;;;;;;5.67;4.00;;;12.30;99.90;;;;;;5005744;28;20184;-82
2021/04/18 10:06:06;;;;;;;6.67;4.07;;;12.50;99.90;;;;;;5006262;28;20680;-81
2021/04/18 10:08:34;;;;;;;5.23;3.23;;;12.50;99.90;;;;;;5005430;28;20234;-83
2021/04/18 10:11:05;;;;;;;5.07;3.85;;;12.60;99.90;;;;;;5005819;28;20334;-83
2021/04/18 10:13:57;;;;;;;4.88;4.25;;;12.70;99.90;;;;;;5006927;28;20194;-84
2021/04/18 10:16:37;;;;;;;5.60;4.03;;;12.90;99.90;;;;;;5005159;28;20202;-84
2021/04/18 10:19:10;;;;;;;4.68;3.80;;;13.10;99.90;;;;;;5006220;28;20211;-84
2021/04/18 10:21:37;;;;;;;3.80;3.13;;;13.10;99.90;;;;;;5022118;28;20187;-84
2021/04/18 10:24:03;;;;;;;8.02;3.60;;;12.90;99.90;;;;;;5005351;28;20191;-83
2021/04/18 10:26:30;;;;;;;8.25;4.75;;;12.80;99.90;;;;;;5009790;28;20187;-83
2021/04/18 10:28:55;;;;;;;5.28;3.90;;;13.10;99.90;;;;;;5005985;28;20292;-82
2021/04/18 10:31:23;;;;;;;5.68;4.05;;;13.40;99.90;;;;;;5006999;28;20278;-78
2021/04/18 10:33:49;;;;;;;4.63;3.65;;;13.90;99.90;;;;;;5007508;28;20270;-84
2021/04/18 10:36:15;;;;;;;5.63;3.90;;;14.10;99.90;;;;;;5004581;28;20184;-84
2021/04/18 10:38:43;;;;;;;4.13;3.10;;;14.10;99.90;;;;;;5004480;28;20747;-84
2021/04/18 10:41:09;;;;;;;6.78;4.32;;;13.80;99.90;;;;;;5003817;28;20588;-80
2021/04/18 10:43:36;;;;;;;5.22;3.60;;;13.80;99.90;;;;;;5006929;28;20260;-79
2021/04/18 10:46:02;;;;;;;4.32;3.45;;;14.20;99.90;;;;;;5006567;28;20191;-79
2021/04/18 10:48:28;;;;;;;5.75;4.20;;;14.00;99.90;;;;;;5006385;28;20188;-84
2021/04/18 10:50:54;;;;;;;6.30;3.88;;;14.10;99.90;;;;;;5005166;28;20304;-84
2021/04/18 10:53:20;;;;;;;11.98;3.97;;;14.00;99.90;;;;;;5006157;28;20194;-82
2021/04/18 10:55:46;;;;;;;4.80;3.47;;;13.80;99.90;;;;;;5005732;28;20658;-82
2021/04/18 10:58:15;;;;;;;4.80;3.47;;;13.80;99.90;;;;;;5002326;28;20196;-83
2021/04/18 11:00:41;;;;;;;4.53;3.45;;;13.90;99.90;;;;;;5000179;28;20744;-82
2021/04/18 11:03:07;;;;;;;5.70;3.90;;;14.10;99.90;;;;;;5001059;28;20184;-82
2021/04/18 11:05:33;;;;;;;6.40;4.10;;;14.10;99.90;;;;;;5001495;28;20681;-82
2021/04/18 11:07:58;;;;;;;5.38;4.18;;;14.30;99.90;;;;;;4995425;28;20191;-81
2021/04/18 11:10:24;;;;;;;4.63;3.20;;;14.20;99.90;;;;;;5001425;28;20731;-83
2021/04/18 11:12:49;;;;;;;5.20;3.60;;;13.70;99.90;;;;;;5002793;28;20604;-82
2021/04/18 11:15:15;;;;;;;5.70;4.00;;;13.50;99.90;;;;;;5001635;28;20207;-82
2021/04/18 11:17:41;;;;;;;6.47;4.47;;;13.70;99.90;;;;;;5001462;28;20683;-83
2021/04/18 11:20:09;;;;;;;4.65;3.65;;;14.00;99.90;;;;;;5002712;28;20225;-82
2021/04/18 11:22:37;;;;;;;4.80;3.55;;;14.10;99.90;;;;;;5003348;28;20179;-83
2021/04/18 11:25:09;;;;;;;4.00;3.53;;;14.00;99.90;;;;;;5001621;28;20183;-83
2021/04/18 11:27:35;;;;;;;3.95;3.47;;;14.10;99.90;;;;;;5001325;28;20199;-83
2021/04/18 11:30:12;;;;;;;5.57;4.53;;;14.00;99.90;;;;;;5001271;28;20269;-83
2021/04/18 11:32:38;;;;;;;4.75;3.83;;;14.10;99.90;;;;;;5002227;28;20552;-83
2021/04/18 11:35:06;;;;;;;6.03;4.00;;;14.30;99.90;;;;;;5017498;28;20541;-82
2021/04/18 11:37:32;;;;;;;5.53;4.50;;;14.30;99.90;;;;;;5001217;28;20249;-83
2021/04/18 11:39:57;;;;;;;5.47;4.00;;;14.40;99.90;;;;;;5001465;28;20211;-83
2021/04/18 11:42:23;;;;;;;5.22;3.80;;;14.30;99.90;;;;;;5001253;28;20557;-81
2021/04/18 11:44:49;;;;;;;5.50;3.30;;;13.70;99.90;;;;;;5002335;28;20188;-81
2021/04/18 11:47:14;;;;;;;5.50;3.40;;;13.40;99.90;;;;;;5001469;28;20180;-80
2021/04/18 11:49:40;;;;;;;4.22;3.40;;;13.10;99.90;;;;;;5001732;28;20298;-81
2021/04/18 11:52:05;;;;;;;3.25;2.95;;;13.00;99.90;;;;;;5004851;28;20192;-82
2021/04/18 11:54:31;;;;;;;4.38;3.22;;;13.10;99.90;;;;;;5004742;28;20253;-81
2021/04/18 11:56:57;;;;;;;4.85;3.17;;;13.20;99.90;;;;;;5006284;28;20180;-82
2021/04/18 11:59:22;;;;;;;6.00;3.25;;;13.40;99.90;;;;;;5004203;28;20207;-82
2021/04/18 12:01:48;;;;;;;3.13;2.80;;;13.30;99.90;;;;;;5006247;28;20187;-83
2021/04/18 12:04:13;;;;;;;3.65;3.00;;;13.30;99.90;;;;;;5004781;28;20198;-81
2021/04/18 12:06:39;;;;;;;4.20;2.88;;;13.10;99.90;;;;;;5006497;28;20314;-81
2021/04/18 12:09:05;;;;;;;4.45;3.28;;;13.10;99.90;;;;;;5005716;28;20219;-82
2021/04/18 12:11:32;;;;;;;3.60;2.90;;;13.40;99.90;;;;;;5004715;28;20687;-81
2021/04/18 12:13:58;;;;;;;4.68;2.65;;;13.60;99.90;;;;;;5005999;28;20267;-81
2021/04/18 12:16:23;;;;;;;2.25;1.92;;;13.90;99.90;;;;;;5005739;28;20266;-81
2021/04/18 12:18:49;;;;;;;1.95;1.75;;;13.80;99.90;;;;;;5004246;28;20579;-82
2021/04/18 12:21:15;;;;;;;3.78;2.63;;;13.90;99.90;;;;;;5004039;28;20688;-83
2021/04/18 12:23:41;;;;;;;5.45;2.33;;;13.90;99.90;;;;;;5005517;28;20988;-82
2021/04/18 12:26:06;;;;;;;4.63;2.40;;;14.20;99.90;;;;;;5003805;28;20392;-82
2021/04/18 12:28:32;;;;;;;4.28;2.63;;;14.10;99.90;;;;;;5003826;28;20575;-81
2021/04/18 12:30:57;;;;;;;3.10;2.60;;;14.30;99.90;;;;;;5004056;28;20203;-82
2021/04/18 12:33:23;;;;;;;2.78;2.47;;;13.80;99.90;;;;;;5003840;28;20191;-82
2021/04/18 12:35:49;;;;;;;3.22;2.92;;;13.70;99.90;;;;;;5004018;28;20677;-82
2021/04/18 12:38:15;;;;;;;3.58;2.35;;;13.90;99.90;;;;;;5003572;28;20560;-81
2021/04/18 12:40:41;;;;;;;2.72;2.33;;;14.10;99.90;;;;;;5003810;28;20207;-81
2021/04/18 12:43:06;;;;;;;3.55;2.50;;;14.30;99.90;;;;;;5004980;28;20188;-81
2021/04/18 12:45:32;;;;;;;2.45;2.25;;;14.20;99.90;;;;;;5003697;28;20188;-83
2021/04/18 12:47:58;;;;;;;4.30;3.03;;;14.30;99.90;;;;;;5005163;28;20175;-83
2021/04/18 12:50:23;;;;;;;4.22;2.80;;;14.40;99.90;;;;;;5003350;28;20213;-83
2021/04/18 12:52:49;;;;;;;3.47;2.50;;;14.30;99.90;;;;;;5005420;28;20237;-81
2021/04/18 12:55:15;;;;;;;2.83;2.50;;;14.40;99.90;;;;;;5004997;28;20618;-82